createdAt,value
2019-02-22T00:01:17.392Z,11.10
2019-02-22T00:03:44.985Z,10.90
2019-02-22T00:06:12.798Z,11.10
2019-02-22T00:08:41.646Z,11.10
2019-02-22T00:11:09.686Z,10.70
2019-02-22T00:13:37.318Z,11.00
2019-02-22T00:16:05.170Z,11.30
2019-02-22T00:18:33.153Z,11.30
2019-02-22T00:21:01.054Z,11.00
2019-02-22T00:23:28.714Z,10.80
2019-02-22T00:25:57.162Z,11.10
2019-02-22T00:28:25.083Z,11.00
2019-02-22T00:30:53.211Z,11.20
2019-02-22T00:33:20.787Z,10.90
2019-02-22T00:35:48.351Z,11.10
2019-02-22T00:38:16.816Z,10.90
2019-02-22T00:40:44.980Z,10.90
2019-02-22T00:43:12.550Z,10.50
2019-02-22T00:45:40.684Z,10.80
2019-02-22T00:48:08.295Z,10.70
2019-02-22T00:50:36.382Z,10.70
2019-02-22T00:53:03.895Z,10.80
2019-02-22T00:55:32.080Z,10.70
2019-02-22T00:57:59.723Z,10.80
2019-02-22T01:00:27.473Z,10.70
2019-02-22T01:02:55.103Z,10.70
2019-02-22T01:05:23.338Z,10.70
2019-02-22T01:07:50.872Z,10.60
2019-02-22T01:10:18.480Z,10.60
2019-02-22T01:12:46.431Z,10.70
2019-02-22T01:15:13.891Z,10.60
2019-02-22T01:17:41.446Z,11.00
2019-02-22T01:20:09.211Z,11.00
2019-02-22T01:22:36.872Z,11.00
2019-02-22T01:25:04.849Z,11.00
2019-02-22T01:27:33.142Z,10.90
2019-02-22T01:30:01.010Z,10.80
2019-02-22T01:32:28.824Z,11.00
2019-02-22T01:34:57.078Z,11.00
2019-02-22T01:37:24.720Z,11.00
2019-02-22T01:39:52.328Z,10.80
2019-02-22T01:42:20.188Z,10.90
2019-02-22T01:44:47.853Z,10.40
2019-02-22T01:47:15.426Z,11.00
2019-02-22T01:49:43.626Z,11.00
2019-02-22T01:52:11.084Z,10.80
2019-02-22T01:54:38.975Z,11.00
2019-02-22T01:57:06.593Z,11.00
2019-02-22T01:59:35.119Z,10.80
2019-02-22T02:02:02.709Z,11.00
2019-02-22T02:04:30.626Z,10.80
2019-02-22T02:06:58.091Z,10.80
2019-02-22T02:09:25.939Z,11.10
2019-02-22T02:11:53.530Z,10.90
2019-02-22T02:14:21.054Z,11.00
2019-02-22T02:16:49.009Z,11.20
2019-02-22T02:19:16.986Z,10.90
2019-02-22T02:21:45.437Z,11.00
2019-02-22T02:24:13.031Z,11.00
2019-02-22T02:26:40.867Z,11.00
2019-02-22T02:29:08.521Z,11.10
2019-02-22T02:31:36.386Z,10.90
2019-02-22T02:34:04.305Z,10.90
2019-02-22T02:36:32.207Z,10.90
2019-02-22T02:38:59.788Z,11.00
2019-02-22T02:41:27.609Z,10.90
2019-02-22T02:43:55.474Z,11.10
2019-02-22T02:46:22.971Z,11.00
2019-02-22T02:48:50.515Z,11.00
2019-02-22T02:51:18.655Z,11.20
2019-02-22T02:53:46.555Z,10.90
2019-02-22T02:56:14.138Z,10.80
2019-02-22T02:58:42.414Z,10.80
2019-02-22T03:01:09.894Z,11.00
2019-02-22T03:03:37.414Z,11.00
2019-02-22T03:06:21.784Z,11.10
2019-02-22T03:08:49.568Z,11.00
2019-02-22T03:11:21.089Z,11.00
2019-02-22T03:13:47.211Z,11.00
2019-02-22T03:16:15.058Z,10.90
2019-02-22T03:18:42.558Z,11.00
2019-02-22T03:21:10.387Z,10.80
2019-02-22T03:23:38.158Z,11.00
2019-02-22T03:26:06.563Z,10.90
2019-02-22T03:28:34.519Z,11.10
2019-02-22T03:31:02.408Z,11.10
2019-02-22T03:33:30.416Z,11.00
2019-02-22T03:35:57.994Z,11.10
2019-02-22T03:38:25.899Z,11.20
2019-02-22T03:40:53.765Z,11.00
2019-02-22T03:43:21.436Z,11.20
2019-02-22T03:45:49.641Z,11.20
2019-02-22T03:48:17.553Z,10.80
2019-02-22T03:50:45.500Z,11.20
2019-02-22T03:53:19.532Z,11.10
2019-02-22T03:55:47.323Z,11.00
2019-02-22T03:58:15.096Z,11.00
2019-02-22T04:00:43.070Z,11.10
2019-02-22T04:03:11.053Z,11.10
2019-02-22T04:05:39.218Z,10.80
2019-02-22T04:08:07.462Z,11.00
2019-02-22T04:10:36.577Z,11.00
2019-02-22T04:13:04.037Z,10.80
2019-02-22T04:15:32.238Z,11.00
2019-02-22T04:18:00.004Z,11.10
2019-02-22T04:20:27.918Z,10.80
2019-02-22T04:22:56.060Z,11.10
2019-02-22T04:25:23.622Z,11.20
2019-02-22T04:27:52.030Z,11.20
2019-02-22T04:30:20.231Z,10.60
2019-02-22T04:32:48.132Z,11.20
2019-02-22T04:35:15.997Z,11.10
2019-02-22T04:37:43.730Z,11.00
2019-02-22T04:40:11.619Z,11.10
2019-02-22T04:42:39.726Z,11.00
2019-02-22T04:45:08.174Z,11.00
2019-02-22T04:47:35.652Z,11.30
2019-02-22T04:50:03.423Z,10.80
2019-02-22T04:52:32.052Z,11.30
2019-02-22T04:55:00.389Z,11.20
2019-02-22T04:57:28.534Z,11.00
2019-02-22T04:59:56.483Z,11.10
2019-02-22T05:02:24.342Z,11.30
2019-02-22T05:04:52.328Z,11.10
2019-02-22T05:07:19.803Z,11.10
2019-02-22T05:09:48.024Z,11.10
2019-02-22T05:12:16.159Z,11.20
2019-02-22T05:14:43.993Z,11.10
2019-02-22T05:17:11.606Z,11.00
2019-02-22T05:19:39.411Z,11.00
2019-02-22T05:22:07.013Z,10.60
2019-02-22T05:24:34.868Z,11.00
2019-02-22T05:27:02.719Z,10.80
2019-02-22T05:29:30.297Z,11.00
2019-02-22T05:31:58.185Z,10.70
2019-02-22T05:34:25.658Z,11.00
2019-02-22T05:36:53.180Z,11.20
2019-02-22T05:39:20.766Z,11.10
2019-02-22T05:41:49.344Z,11.00
2019-02-22T05:44:16.899Z,11.00
2019-02-22T05:46:44.774Z,10.70
2019-02-22T05:49:12.775Z,11.00
2019-02-22T05:51:40.422Z,10.70
2019-02-22T05:54:08.231Z,11.10
2019-02-22T05:56:36.214Z,11.00
2019-02-22T05:59:04.341Z,11.10
2019-02-22T06:01:31.949Z,10.80
2019-02-22T06:03:59.497Z,10.80
2019-02-22T06:06:27.089Z,11.20
2019-02-22T06:08:54.592Z,11.00
2019-02-22T06:11:22.139Z,11.10
2019-02-22T06:13:50.477Z,11.00
2019-02-22T06:16:18.040Z,11.10
2019-02-22T06:18:46.648Z,11.00
2019-02-22T06:21:15.362Z,11.30
2019-02-22T06:23:43.400Z,10.90
2019-02-22T06:26:10.964Z,11.00
2019-02-22T06:28:39.424Z,11.30
2019-02-22T06:31:07.005Z,11.10
2019-02-22T06:33:35.177Z,11.10
2019-02-22T06:36:03.360Z,11.00
2019-02-22T06:38:31.230Z,11.10
2019-02-22T06:40:58.736Z,11.00
2019-02-22T06:43:26.326Z,11.00
2019-02-22T06:45:54.946Z,11.00
2019-02-22T06:48:22.717Z,11.00
2019-02-22T06:50:50.660Z,10.70
2019-02-22T06:53:18.097Z,10.90
2019-02-22T06:55:45.955Z,11.00
2019-02-22T06:58:14.009Z,11.00
2019-02-22T07:00:41.625Z,11.00
2019-02-22T07:03:10.084Z,11.00
2019-02-22T07:05:38.263Z,11.10
2019-02-22T07:08:06.131Z,11.00
2019-02-22T07:10:53.531Z,11.20
2019-02-22T07:13:21.370Z,11.20
2019-02-22T07:15:49.321Z,11.20
2019-02-22T07:18:16.926Z,11.20
2019-02-22T07:20:45.062Z,11.10
2019-02-22T07:23:13.172Z,11.40
2019-02-22T07:25:41.030Z,11.20
2019-02-22T07:28:09.103Z,11.30
2019-02-22T07:30:36.979Z,11.40
2019-02-22T07:33:04.894Z,11.00
2019-02-22T07:35:32.923Z,11.40
2019-02-22T07:38:00.834Z,11.40
2019-02-22T07:40:28.275Z,11.50
2019-02-22T07:43:07.449Z,11.60
2019-02-22T07:45:25.470Z,11.60
2019-02-22T07:47:53.759Z,11.60
2019-02-22T07:50:21.539Z,11.20
2019-02-22T07:52:49.478Z,11.60
2019-02-22T07:55:17.310Z,11.80
2019-02-22T07:57:45.246Z,12.00
2019-02-22T08:00:13.436Z,11.90
2019-02-22T08:02:41.314Z,11.70
2019-02-22T08:05:09.324Z,11.80
2019-02-22T08:07:37.418Z,11.70
2019-02-22T08:10:05.235Z,11.90
2019-02-22T08:12:32.755Z,11.90
2019-02-22T08:15:00.487Z,12.00
2019-02-22T08:17:28.394Z,11.90
2019-02-22T08:19:55.919Z,12.00
2019-02-22T08:22:24.087Z,12.20
2019-02-22T08:24:51.883Z,12.10
2019-02-22T08:27:19.789Z,12.60
2019-02-22T08:29:47.280Z,12.50
2019-02-22T08:32:14.841Z,12.80
2019-02-22T08:34:42.679Z,12.70
2019-02-22T08:37:10.190Z,12.80
2019-02-22T08:39:37.767Z,13.20
2019-02-22T08:42:06.722Z,13.10
2019-02-22T08:44:34.535Z,13.10
2019-02-22T08:47:02.391Z,13.20
2019-02-22T08:49:30.140Z,13.20
2019-02-22T08:51:57.770Z,13.40
2019-02-22T08:54:25.376Z,13.20
2019-02-22T08:56:52.855Z,13.40
2019-02-22T08:59:20.766Z,13.40
2019-02-22T09:01:48.370Z,13.40
2019-02-22T09:04:16.588Z,13.60
2019-02-22T09:06:44.428Z,13.50
2019-02-22T09:09:12.046Z,13.50
2019-02-22T09:11:39.558Z,13.30
2019-02-22T09:14:07.783Z,13.30
2019-02-22T09:16:36.156Z,13.50
2019-02-22T09:19:06.074Z,13.50
2019-02-22T09:21:33.966Z,13.50
2019-02-22T09:24:01.936Z,13.80
2019-02-22T09:26:29.768Z,14.00
2019-02-22T09:28:57.391Z,14.70
2019-02-22T09:31:24.891Z,15.00
2019-02-22T09:33:53.079Z,15.30
2019-02-22T09:36:20.581Z,15.20
2019-02-22T09:38:48.326Z,15.10
2019-02-22T09:41:17.857Z,15.00
2019-02-22T09:43:54.522Z,14.50
2019-02-22T09:46:15.002Z,14.80
2019-02-22T09:48:42.584Z,15.40
2019-02-22T09:51:10.393Z,15.20
2019-02-22T09:53:38.196Z,14.90
2019-02-22T09:56:06.050Z,15.00
2019-02-22T09:58:34.322Z,14.70
2019-02-22T10:01:02.071Z,14.70
2019-02-22T10:03:29.981Z,14.80
2019-02-22T10:05:57.439Z,15.10
2019-02-22T10:08:25.218Z,15.20
2019-02-22T10:10:53.022Z,14.90
2019-02-22T10:13:20.534Z,15.20
2019-02-22T10:15:48.395Z,16.20
2019-02-22T10:18:15.895Z,17.20
2019-02-22T10:20:43.808Z,18.40
2019-02-22T10:23:12.653Z,19.10
2019-02-22T10:25:40.243Z,19.10
2019-02-22T10:28:17.250Z,19.00
2019-02-22T10:30:37.584Z,19.70
2019-02-22T10:33:05.494Z,20.70
2019-02-22T10:35:33.548Z,21.50
2019-02-22T10:38:01.343Z,22.00
2019-02-22T10:40:29.118Z,22.30
2019-02-22T10:42:57.282Z,22.80
2019-02-22T10:45:24.775Z,23.20
2019-02-22T10:47:52.786Z,21.70
2019-02-22T10:50:21.055Z,20.50
2019-02-22T10:52:48.951Z,19.20
2019-02-22T10:55:16.931Z,18.50
2019-02-22T10:57:44.414Z,17.90
2019-02-22T11:00:12.715Z,17.50
2019-02-22T11:02:40.299Z,17.00
2019-02-22T11:05:08.061Z,16.60
2019-02-22T11:07:37.254Z,17.50
2019-02-22T11:10:07.047Z,17.90
2019-02-22T11:12:34.670Z,17.60
2019-02-22T11:15:02.567Z,17.10
2019-02-22T11:17:30.618Z,16.50
2019-02-22T11:19:58.440Z,16.30
2019-02-22T11:22:26.366Z,16.00
2019-02-22T11:24:54.454Z,15.60
2019-02-22T11:27:21.952Z,15.50
2019-02-22T11:29:49.798Z,15.40
2019-02-22T11:32:17.666Z,15.20
2019-02-22T11:34:45.266Z,15.10
2019-02-22T11:37:13.363Z,15.20
2019-02-22T11:39:41.163Z,16.20
2019-02-22T11:42:08.755Z,17.80
2019-02-22T11:44:40.127Z,19.10
2019-02-22T11:47:06.686Z,20.30
2019-02-22T11:49:34.842Z,21.10
2019-02-22T11:52:02.661Z,21.50
2019-02-22T11:54:30.182Z,20.10
2019-02-22T11:56:58.114Z,19.30
2019-02-22T11:59:25.958Z,18.10
2019-02-22T12:01:54.214Z,17.70
2019-02-22T12:04:22.017Z,17.10
2019-02-22T12:06:50.151Z,16.60
2019-02-22T12:09:18.247Z,16.30
2019-02-22T12:11:46.106Z,15.90
2019-02-22T12:14:13.610Z,15.80
2019-02-22T12:16:41.446Z,15.90
2019-02-22T12:19:08.963Z,16.00
2019-02-22T12:21:36.754Z,16.80
2019-02-22T12:24:04.255Z,17.00
2019-02-22T12:26:32.148Z,16.60
2019-02-22T12:29:00.050Z,16.30
2019-02-22T12:31:27.911Z,15.50
2019-02-22T12:33:55.821Z,15.20
2019-02-22T12:36:23.758Z,14.80
2019-02-22T12:38:51.279Z,14.90
2019-02-22T12:41:19.175Z,14.80
2019-02-22T12:43:47.068Z,14.80
2019-02-22T12:46:15.538Z,14.70
2019-02-22T12:48:43.345Z,14.70
2019-02-22T12:51:11.201Z,14.60
2019-02-22T12:53:38.772Z,14.30
2019-02-22T12:56:06.559Z,15.10
2019-02-22T12:58:34.555Z,14.90
2019-02-22T13:01:02.438Z,15.20
2019-02-22T13:03:30.844Z,15.50
2019-02-22T13:05:58.960Z,15.50
2019-02-22T13:08:26.643Z,15.40
2019-02-22T13:10:54.504Z,15.60
2019-02-22T13:13:22.154Z,15.50
2019-02-22T13:15:49.783Z,15.60
2019-02-22T13:18:17.410Z,15.60
2019-02-22T13:20:45.274Z,15.30
2019-02-22T13:23:13.148Z,15.50
2019-02-22T13:25:42.185Z,15.40
2019-02-22T13:28:09.733Z,15.30
2019-02-22T13:30:37.323Z,15.60
2019-02-22T13:33:04.840Z,15.70
2019-02-22T13:35:32.339Z,15.80
2019-02-22T13:38:00.186Z,15.50
2019-02-22T13:40:28.485Z,15.80
2019-02-22T13:42:56.346Z,15.40
2019-02-22T13:45:27.008Z,15.50
2019-02-22T13:47:53.575Z,15.80
2019-02-22T13:50:21.091Z,15.40
2019-02-22T13:52:48.574Z,15.50
2019-02-22T13:55:16.666Z,15.70
2019-02-22T13:57:44.102Z,15.50
2019-02-22T14:00:14.003Z,15.20
2019-02-22T14:02:41.550Z,15.10
2019-02-22T14:05:09.176Z,14.80
2019-02-22T14:07:36.745Z,14.80
2019-02-22T14:10:04.843Z,14.50
2019-02-22T14:12:32.355Z,14.90
2019-02-22T14:15:02.069Z,14.70
2019-02-22T14:17:29.942Z,14.50
2019-02-22T14:19:57.550Z,14.70
2019-02-22T14:22:25.050Z,14.50
2019-02-22T14:24:52.608Z,14.50
2019-02-22T14:27:20.463Z,14.30
2019-02-22T14:29:48.312Z,14.30
2019-02-22T14:32:15.789Z,14.30
2019-02-22T14:34:43.404Z,14.20
2019-02-22T14:37:11.409Z,14.10
2019-02-22T14:39:39.260Z,14.20
2019-02-22T14:42:07.000Z,14.10
2019-02-22T14:44:35.238Z,14.20
2019-02-22T14:47:02.687Z,14.40
2019-02-22T14:49:30.479Z,14.30
2019-02-22T14:51:58.579Z,14.40
2019-02-22T14:54:26.188Z,14.30
2019-02-22T14:56:54.109Z,14.30
2019-02-22T14:59:21.688Z,14.30
2019-02-22T15:01:49.298Z,14.20
2019-02-22T15:04:17.203Z,14.00
2019-02-22T15:06:45.030Z,14.10
2019-02-22T15:09:13.187Z,13.70
2019-02-22T15:11:40.983Z,13.90
2019-02-22T15:14:09.387Z,14.20
2019-02-22T15:17:11.869Z,14.00
2019-02-22T15:19:39.503Z,13.90
2019-02-22T15:22:08.551Z,13.80
2019-02-22T15:24:37.409Z,13.70
2019-02-22T15:27:05.301Z,13.60
2019-02-22T15:29:32.906Z,13.50
2019-02-22T15:32:00.392Z,13.80
2019-02-22T15:34:27.886Z,13.60
2019-02-22T15:36:55.481Z,13.60
2019-02-22T15:39:23.265Z,13.50
2019-02-22T15:41:50.887Z,13.60
2019-02-22T15:44:18.674Z,13.80
2019-02-22T15:46:46.550Z,13.60
2019-02-22T15:49:14.425Z,13.40
2019-02-22T15:51:42.024Z,13.60
2019-02-22T15:54:10.118Z,13.50
2019-02-22T15:56:37.594Z,13.30
2019-02-22T15:59:05.520Z,13.50
2019-02-22T16:01:33.079Z,13.30
2019-02-22T16:04:08.357Z,13.40
2019-02-22T16:06:37.113Z,13.40
2019-02-22T16:09:06.437Z,12.80
2019-02-22T16:11:33.932Z,13.20
2019-02-22T16:14:01.819Z,13.10
2019-02-22T16:16:30.015Z,13.20
2019-02-22T16:18:58.167Z,13.00
2019-02-22T16:21:25.991Z,13.00
2019-02-22T16:23:53.774Z,13.10
2019-02-22T16:26:26.075Z,12.80
2019-02-22T16:28:53.675Z,12.80
2019-02-22T16:31:21.189Z,12.70
2019-02-22T16:33:48.767Z,12.70
2019-02-22T16:36:16.290Z,12.80
2019-02-22T16:38:44.039Z,12.90
2019-02-22T16:41:12.249Z,12.70
2019-02-22T16:43:40.120Z,12.70
2019-02-22T16:46:07.686Z,12.20
2019-02-22T16:48:36.634Z,12.30
2019-02-22T16:51:04.138Z,12.20
2019-02-22T16:53:31.693Z,12.20
2019-02-22T16:55:59.854Z,12.50
2019-02-22T16:58:27.585Z,12.10
2019-02-22T17:00:55.842Z,12.30
2019-02-22T17:03:23.694Z,12.20
2019-02-22T17:05:51.310Z,12.20
2019-02-22T17:08:18.759Z,12.40
2019-02-22T17:10:46.592Z,12.10
2019-02-22T17:13:14.454Z,12.10
2019-02-22T17:15:42.250Z,12.00
2019-02-22T17:18:09.777Z,12.00
2019-02-22T17:20:37.274Z,11.80
2019-02-22T17:23:04.750Z,11.90
2019-02-22T17:25:32.719Z,11.80
2019-02-22T17:28:00.634Z,11.60
2019-02-22T17:30:28.418Z,11.60
2019-02-22T17:32:56.171Z,11.70
2019-02-22T17:35:23.651Z,11.30
2019-02-22T17:37:51.491Z,11.40
2019-02-22T17:40:19.191Z,11.20
2019-02-22T17:42:47.107Z,11.10
2019-02-22T17:45:17.502Z,11.40
2019-02-22T17:47:45.010Z,11.20
2019-02-22T17:50:12.767Z,10.80
2019-02-22T17:52:40.256Z,10.80
2019-02-22T17:55:08.882Z,10.80
2019-02-22T17:57:36.763Z,10.70
2019-02-22T18:00:05.900Z,10.80
2019-02-22T18:02:34.064Z,10.70
2019-02-22T18:05:01.571Z,10.70
2019-02-22T18:07:29.434Z,10.70
2019-02-22T18:09:56.920Z,10.60
2019-02-22T18:12:24.525Z,10.10
2019-02-22T18:14:52.705Z,10.40
2019-02-22T18:17:20.796Z,10.50
2019-02-22T18:19:49.367Z,10.50
2019-02-22T18:22:25.536Z,10.50
2019-02-22T18:24:46.498Z,10.70
2019-02-22T18:27:13.987Z,10.40
2019-02-22T18:29:41.758Z,10.40
2019-02-22T18:32:09.311Z,10.50
2019-02-22T18:34:36.831Z,10.50
2019-02-22T18:37:04.343Z,10.40
2019-02-22T18:39:31.795Z,10.30
2019-02-22T18:41:59.687Z,10.50
2019-02-22T18:44:27.234Z,10.50
2019-02-22T18:46:55.726Z,10.60
2019-02-22T18:49:23.982Z,10.40
2019-02-22T18:51:53.664Z,10.40
2019-02-22T18:54:21.658Z,10.20
2019-02-22T18:56:50.029Z,10.20
2019-02-22T18:59:17.937Z,10.10
2019-02-22T19:01:45.571Z,10.20
2019-02-22T19:04:13.138Z,10.30
2019-02-22T19:06:41.291Z,9.90
2019-02-22T19:09:09.101Z,10.00
2019-02-22T19:11:36.738Z,10.10
2019-02-22T19:14:04.483Z,10.10
2019-02-22T19:16:32.914Z,10.00
2019-02-22T19:19:00.400Z,10.00
2019-02-22T19:21:28.584Z,10.30
2019-02-22T19:23:56.498Z,10.00
2019-02-22T19:26:24.026Z,9.80
2019-02-22T19:28:52.027Z,10.00
2019-02-22T19:31:19.867Z,9.70
2019-02-22T19:33:49.924Z,9.80
2019-02-22T19:36:18.194Z,9.90
2019-02-22T19:38:46.187Z,9.80
2019-02-22T19:41:14.437Z,9.80
2019-02-22T19:43:42.435Z,9.50
2019-02-22T19:46:09.877Z,9.90
2019-02-22T19:48:37.600Z,9.70
2019-02-22T19:51:05.405Z,9.90
2019-02-22T19:53:33.397Z,9.80
2019-02-22T19:56:01.238Z,9.50
2019-02-22T19:58:29.631Z,9.40
2019-02-22T20:00:57.166Z,9.60
2019-02-22T20:03:24.931Z,9.30
2019-02-22T20:05:52.678Z,9.20
2019-02-22T20:08:21.026Z,9.20
2019-02-22T20:10:48.806Z,9.20
2019-02-22T20:13:16.532Z,8.90
2019-02-22T20:15:44.107Z,8.90
2019-02-22T20:18:11.978Z,9.20
2019-02-22T20:20:39.801Z,8.90
2019-02-22T20:23:07.674Z,8.90
2019-02-22T20:25:35.502Z,8.70
2019-02-22T20:28:03.137Z,8.80
2019-02-22T20:30:31.161Z,9.10
2019-02-22T20:32:58.779Z,9.20
2019-02-22T20:35:26.256Z,8.90
2019-02-22T20:37:53.817Z,9.10
2019-02-22T20:40:21.805Z,8.30
2019-02-22T20:42:49.634Z,8.60
2019-02-22T20:45:17.193Z,9.00
2019-02-22T20:47:45.090Z,8.90
2019-02-22T20:50:12.703Z,8.60
2019-02-22T20:52:40.287Z,8.90
2019-02-22T20:55:07.914Z,8.70
2019-02-22T20:57:35.747Z,8.90
2019-02-22T21:00:03.846Z,8.70
2019-02-22T21:02:32.075Z,9.00
2019-02-22T21:04:59.562Z,9.30
2019-02-22T21:07:27.495Z,9.30
2019-02-22T21:09:54.982Z,9.40
2019-02-22T21:12:22.482Z,9.70
2019-02-22T21:14:50.034Z,9.60
2019-02-22T21:17:18.050Z,9.80
2019-02-22T21:19:48.124Z,9.50
2019-02-22T21:22:16.035Z,9.50
2019-02-22T21:24:43.956Z,9.60
2019-02-22T21:27:11.608Z,9.50
2019-02-22T21:29:39.295Z,9.90
2019-02-22T21:32:07.335Z,9.70
2019-02-22T21:34:34.921Z,9.70
2019-02-22T21:37:03.040Z,10.00
2019-02-22T21:39:31.191Z,9.70
2019-02-22T21:41:59.310Z,9.50
2019-02-22T21:44:26.823Z,10.00
2019-02-22T21:46:54.588Z,10.00
2019-02-22T21:49:22.127Z,9.60
2019-02-22T21:51:49.733Z,10.10
2019-02-22T21:54:17.660Z,10.00
2019-02-22T21:56:45.285Z,9.90
2019-02-22T21:59:13.192Z,9.90
2019-02-22T22:01:41.056Z,9.70
2019-02-22T22:04:09.030Z,9.60
2019-02-22T22:06:36.651Z,9.50
2019-02-22T22:09:04.454Z,9.60
2019-02-22T22:11:31.963Z,9.60
2019-02-22T22:13:59.574Z,9.50
2019-02-22T22:16:27.459Z,9.60
2019-02-22T22:18:55.965Z,9.60
2019-02-22T22:21:23.689Z,9.70
2019-02-22T22:23:51.611Z,9.60
2019-02-22T22:26:19.932Z,9.50
2019-02-22T22:28:48.062Z,9.60
2019-02-22T22:31:15.599Z,9.70
2019-02-22T22:33:44.183Z,9.40
2019-02-22T22:36:13.418Z,9.40
2019-02-22T22:38:41.606Z,9.40
2019-02-22T22:41:09.732Z,9.40
2019-02-22T22:43:37.742Z,9.50
2019-02-22T22:46:05.723Z,9.40
2019-02-22T22:48:34.459Z,9.30
2019-02-22T22:51:02.510Z,9.40
2019-02-22T22:53:30.939Z,9.20
2019-02-22T22:55:58.684Z,9.40
2019-02-22T22:58:27.055Z,9.30
2019-02-22T23:01:11.719Z,9.10
2019-02-22T23:03:39.379Z,9.40
2019-02-22T23:06:08.553Z,8.90
2019-02-22T23:08:36.243Z,8.90
2019-02-22T23:11:03.986Z,8.40
2019-02-22T23:13:31.907Z,9.10
2019-02-22T23:15:59.549Z,8.80
2019-02-22T23:18:27.436Z,9.10
2019-02-22T23:20:54.923Z,8.90
2019-02-22T23:23:22.874Z,8.50
2019-02-22T23:25:50.702Z,8.70
2019-02-22T23:28:18.306Z,8.80
2019-02-22T23:30:45.859Z,8.80
2019-02-22T23:33:13.410Z,8.60
2019-02-22T23:35:41.031Z,8.80
2019-02-22T23:38:09.090Z,8.60
2019-02-22T23:40:37.055Z,8.60
2019-02-22T23:43:05.000Z,8.70
2019-02-22T23:45:32.646Z,8.50
2019-02-22T23:48:00.550Z,8.60
2019-02-22T23:50:28.135Z,8.80
2019-02-22T23:52:55.700Z,8.60
2019-02-22T23:55:23.560Z,8.50
2019-02-22T23:57:51.583Z,8.30
